TimeCST,TemperatureF,Dew PointF,Humidity,Sea Level PressureIn,VisibilityMPH,Wind Direction,Wind SpeedMPH,Gust SpeedMPH,PrecipitationIn,Events,Conditions,WindDirDegrees,DateUTC
12:52 AM,23.0,16.0,74,30.12,10.0,SW,12.7,19.6,N/A,,Overcast,230,2013-02-02 06:52:00
1:52 AM,23.0,17.1,78,30.09,10.0,SW,9.2,-,N/A,,Overcast,220,2013-02-02 07:52:00
2:30 AM,24.8,17.6,74,30.05,2.5,WSW,11.5,18.4,0.00,Snow,Light Snow,240,2013-02-02 08:30:00
2:43 AM,24.8,19.4,80,30.04,1.2,SW,11.5,-,0.01,Snow,Light Snow,220,2013-02-02 08:43:00
2:52 AM,24.1,19.9,84,30.08,1.0,WSW,9.2,-,0.01,Snow,Light Snow,240,2013-02-02 08:52:00
2:59 AM,24.8,19.4,80,30.04,1.0,WSW,12.7,-,0.00,Snow,Light Snow,240,2013-02-02 08:59:00
3:05 AM,24.8,19.4,80,30.04,1.5,WSW,10.4,18.4,0.00,Snow,Light Snow,240,2013-02-02 09:05:00
3:26 AM,24.8,19.4,80,30.03,2.0,WSW,10.4,-,0.02,Snow,Light Snow,240,2013-02-02 09:26:00
3:33 AM,24.8,19.4,80,30.02,1.5,WSW,9.2,-,0.02,Snow,Light Snow,240,2013-02-02 09:33:00
3:41 AM,24.8,19.4,80,30.02,1.2,WSW,11.5,-,0.02,Snow,Light Snow,240,2013-02-02 09:41:00
3:52 AM,24.1,19.9,84,30.05,2.0,WSW,10.4,-,0.03,Snow,Light Snow,240,2013-02-02 09:52:00
4:04 AM,24.8,19.4,80,30.01,3.0,WSW,6.9,-,0.00,Snow,Light Snow,240,2013-02-02 10:04:00
4:52 AM,24.1,19.9,84,30.04,7.0,WSW,6.9,-,0.00,Snow,Light Snow,240,2013-02-02 10:52:00
5:52 AM,25.0,21.0,85,30.03,10.0,WSW,9.2,-,0.00,,Overcast,250,2013-02-02 11:52:00
6:52 AM,25.0,21.0,85,30.04,10.0,WSW,5.8,-,N/A,,Overcast,250,2013-02-02 12:52:00
7:52 AM,26.1,19.9,78,30.05,10.0,WNW,8.1,-,N/A,,Overcast,290,2013-02-02 13:52:00
8:52 AM,23.0,15.1,72,30.08,10.0,NNW,17.3,21.9,N/A,,Overcast,340,2013-02-02 14:52:00
9:52 AM,19.9,12.9,74,30.11,8.0,North,15.0,-,N/A,,Overcast,350,2013-02-02 15:52:00
10:52 AM,18.0,10.9,74,30.14,5.0,North,9.2,-,0.00,Snow,Light Snow,360,2013-02-02 16:52:00
11:18 AM,17.6,10.4,73,30.11,7.0,NNW,9.2,-,0.00,,Overcast,340,2013-02-02 17:18:00
11:52 AM,19.0,10.9,71,30.14,8.0,NNW,9.2,-,0.00,,Overcast,330,2013-02-02 17:52:00
12:52 PM,19.0,10.0,68,30.14,10.0,WNW,11.5,-,N/A,,Overcast,300,2013-02-02 18:52:00
1:52 PM,19.0,9.0,65,30.14,10.0,NW,10.4,-,N/A,,Scattered Clouds,310,2013-02-02 19:52:00
2:12 PM,17.6,8.6,68,30.11,10.0,NW,9.2,-,N/A,,Mostly Cloudy,320,2013-02-02 20:12:00
2:52 PM,18.0,8.1,65,30.15,10.0,NW,11.5,-,N/A,,Scattered Clouds,310,2013-02-02 20:52:00
3:52 PM,18.0,8.1,65,30.15,10.0,WNW,10.4,-,N/A,,Scattered Clouds,300,2013-02-02 21:52:00
4:52 PM,18.0,7.0,62,30.15,10.0,NW,11.5,-,N/A,,Mostly Cloudy,310,2013-02-02 22:52:00
5:52 PM,17.1,7.0,65,30.15,10.0,NW,6.9,-,N/A,,Mostly Cloudy,310,2013-02-02 23:52:00
6:52 PM,17.1,8.1,68,30.14,10.0,NW,3.5,-,N/A,,Overcast,310,2013-02-03 00:52:00
7:05 PM,17.6,8.6,68,30.11,10.0,Calm,Calm,-,N/A,,Overcast,0,2013-02-03 01:05:00
7:52 PM,15.8,6.8,68,30.10,10.0,West,4.6,-,N/A,,Mostly Cloudy,270,2013-02-03 01:52:00
8:34 PM,17.6,8.6,68,30.09,10.0,Calm,Calm,-,N/A,,Overcast,0,2013-02-03 02:34:00
8:52 PM,17.1,9.0,71,30.12,10.0,Calm,Calm,-,N/A,,Overcast,0,2013-02-03 02:52:00
9:52 PM,17.1,10.0,74,30.10,10.0,SW,4.6,-,N/A,,Overcast,220,2013-02-03 03:52:00
10:06 PM,17.6,10.4,73,30.06,2.5,WSW,4.6,-,0.00,Snow,Light Snow,240,2013-02-03 04:06:00
10:16 PM,15.8,10.4,79,30.06,3.0,WSW,3.5,-,0.00,Snow,Light Snow,250,2013-02-03 04:16:00
10:42 PM,15.8,10.4,79,30.05,1.8,Calm,Calm,-,0.00,Snow,Light Snow,0,2013-02-03 04:42:00
10:52 PM,16.0,10.9,81,30.08,2.5,Calm,Calm,-,0.00,Snow,Light Snow,0,2013-02-03 04:52:00
10:56 PM,15.8,10.4,79,30.05,3.0,SW,3.5,-,0.00,Snow,Light Snow,230,2013-02-03 04:56:00
11:04 PM,15.8,10.4,79,30.04,3.0,Calm,Calm,-,0.01,Snow,Light Snow,0,2013-02-03 05:04:00
11:24 PM,15.8,12.2,86,30.03,2.5,Calm,Calm,-,0.01,Snow,Light Snow,0,2013-02-03 05:24:00
11:44 PM,17.6,12.2,79,30.03,5.0,Calm,Calm,-,0.01,Snow,Light Snow,0,2013-02-03 05:44:00
11:52 PM,17.1,12.0,81,30.06,7.0,Calm,Calm,-,0.01,,Overcast,0,2013-02-03 05:52:00